Mb-1210 — UEQC — position and weather

sailwx.info

Track history (hours):
 
Tides and Currents Weather Stations Pressure Air Temp Water Temp Dewpoint Dewpoint Depression Visibility Wind Speed Wind Dir Waves Ship Positions

Mb-1210

Last reported at 2013-Nov-30 22:33 UTC. Time now 2014-Aug-02 00:20 UTC.
Position N 59°57' E 030°22'.
Warning: this ship's position is months out of date.

Length 50 m; draft 2.4 m.

Type: Towing. MMSI: 273421120.

Date/timePositionNaut miles runAvg speedWind from/ knotsBaromVisibWave heightAir tempDewpointWater temp
2013-Nov-30 22:33N 59°57' E 030°22'3 2.8
2013-Nov-30 21:33N 59°57' E 030°17'0 0.1
2013-Nov-30 20:32N 59°57' E 030°17'0 0.0
2013-Nov-30 19:33N 59°57' E 030°17'0 0.0
2013-Nov-30 18:33N 59°57' E 030°17'0 0.0
2013-Nov-30 17:33N 59°57' E 030°17'0 0.0
2013-Nov-30 16:33N 59°57' E 030°17'0 0.0
2013-Nov-30 15:33N 59°57' E 030°17'0 0.0
2013-Nov-30 14:33N 59°57' E 030°17'4 4.2
2013-Nov-30 13:33N 59°57' E 030°09'4 0.3
2013-Nov-29 23:33N 59°56' E 030°17'  
2013-Nov-26 22:31N 59°57' E 030°22'3 2.8
2013-Nov-26 21:33N 59°57' E 030°17'0 0.0
2013-Nov-26 20:33N 59°57' E 030°17'0 0.0
2013-Nov-26 19:33N 59°57' E 030°17'0 0.0
2013-Nov-26 18:33N 59°57' E 030°17'0 0.0
2013-Nov-26 17:32N 59°57' E 030°17'0 0.0
2013-Nov-26 16:33N 59°57' E 030°17'0 0.0
2013-Nov-26 15:33N 59°57' E 030°17'1 0.7
2013-Nov-26 14:33N 59°57' E 030°16'2 0.1
2013-Nov-25 23:33N 59°56' E 030°18'  
Track history (hours):
 
Tides and Currents Weather Stations Pressure Air Temp Water Temp Dewpoint Dewpoint Depression Visibility Wind Speed Wind Dir Waves Ship Positions

Mb-1210

Last reported at 2013-Nov-30 22:33 UTC. Time now 2014-Aug-02 00:20 UTC.
Position N 59°57' E 030°22'.
Warning: this ship's position is months out of date.

Length 50 m; draft 2.4 m.

Type: Towing. MMSI: 273421120.

Date/timePositionNaut miles runAvg speedWind from/ knotsBaromVisibWave heightAir tempDewpointWater temp
2013-Nov-30 22:33N 59°57' E 030°22'3 2.8
2013-Nov-30 21:33N 59°57' E 030°17'0 0.1
2013-Nov-30 20:32N 59°57' E 030°17'0 0.0
2013-Nov-30 19:33N 59°57' E 030°17'0 0.0
2013-Nov-30 18:33N 59°57' E 030°17'0 0.0
2013-Nov-30 17:33N 59°57' E 030°17'0 0.0
2013-Nov-30 16:33N 59°57' E 030°17'0 0.0
2013-Nov-30 15:33N 59°57' E 030°17'0 0.0
2013-Nov-30 14:33N 59°57' E 030°17'4 4.2
2013-Nov-30 13:33N 59°57' E 030°09'4 0.3
2013-Nov-29 23:33N 59°56' E 030°17'  
2013-Nov-26 22:31N 59°57' E 030°22'3 2.8
2013-Nov-26 21:33N 59°57' E 030°17'0 0.0
2013-Nov-26 20:33N 59°57' E 030°17'0 0.0
2013-Nov-26 19:33N 59°57' E 030°17'0 0.0
2013-Nov-26 18:33N 59°57' E 030°17'0 0.0
2013-Nov-26 17:32N 59°57' E 030°17'0 0.0
2013-Nov-26 16:33N 59°57' E 030°17'0 0.0
2013-Nov-26 15:33N 59°57' E 030°17'1 0.7
2013-Nov-26 14:33N 59°57' E 030°16'2 0.1
2013-Nov-25 23:33N 59°56' E 030°18'  

Dump ship's entire track history